Terminal Aerodrome Forecast
Issued by NWS

Home | Current Version | Previous Version | Text Only | Print | Product List | Glossary Off
Versions: 1 2 3 4 5 6 7 8 9 10 11 12 13 14 15

000
FTUS43 KGRB 281535 AAB
TAFAUW
TAF AMD
KAUW 281535Z 2816/2912 16008KT 3SM BR BKN006 OVC016
      TEMPO 2816/2818 1SM -RA BR OVC006
     FM281800 19008KT P6SM VCSH BKN015 OVC050
     FM282100 20009KT P6SM VCSH SCT020 BKN035
      TEMPO 2823/2903 5SM TSRA BKN020CB
     FM290400 18004KT 6SM BR VCSH BKN015 BKN050
      TEMPO 2908/2912 3SM BR BKN006=

USA.gov is the U.S. government's official web portal to all federal, state and local government web resources and services.